MMPRMMCL

Guest
Details From MMPR - LICENCIADO GUSTAVO DIAZ ORDAZ INTL
To MMCL - CULIACAN INTL
Flight Number -
Tags generated
Created
Modified
Stats Distance 277 nm / 513 km
Max Altitude 30,000 ft / 9,144 m
Waypoints 5
Social Downloads 1
Likes 0
Share VATSIM

Download

Looking for another format? Having issues loading an existing format? Contact us
Advertisement - Login to hide

Notes

Basic altitude profile: - Ascent Rate: 2500ft/min - Ascent Speed: 250kts - Cruise Altitude: 30000ft - Cruise Speed: 300kts - Descent Rate: 20002ft/min - Descent Speed: 250kts

Route

MMPR PVR J141 MZT UJ7 CUL MMCL

ID Type Via Altitude Latitude Longitude Leg Dist Tot Dist Heading (true) Name
O MMPR APT - 0 ft / 0 m 20.68007˚ -105.25415˚ - 0 nm - LICENCIADO GUSTAVO DIAZ ORDAZ INTL
PVR VOR - 200 ft / 61 m 20.67309˚ -105.25750˚ 0 nm 0 nm 204° / 204° VALLARTA VOR-DME
MZT VOR J141 (AWY-HI) 30,000 ft / 9,144 m 23.16052˚ -106.27096˚ 159 nm 160 nm 339° / 339° MAZATLAN VOR-DME
CUL VOR UJ7 (AWY-HI) 18,500 ft / 5,639 m 24.76443˚ -107.47728˚ 116 nm 277 nm 326° / 325° CULIACAN VOR-DME
O MMCL APT - 0 ft / 0 m 24.76566˚ -107.47611˚ 0 nm 277 nm 41° / 41° CULIACAN INTL

Altitude Profile

Advertisement - Login to hide

Weather


0- 5 10 15 20 25 30 35+ Temperature / ° C

Clouds and Precipitation
Forecast for 2017-12-17 12:00 UTC. Updated 43 minutes ago

Ground ~20,000 ft ~40,000 ft Winds

MMPR

Details ICAO MMPR (PVR)
Name LICENCIADO GUSTAVO DIAZ ORDAZ INTL
Region Mexico
Timezone America/Mexico_City (UTC-6.0)
Stats Elevation 23 ft / 7 m (AMSL)
Location 20.680069° -105.254153°
Runways 1
Magnetic Variation 6.889° E

METAR

MMPR 171046Z 06006KT 12SM SCT250 19/19 A2992 RMK 8/002

Decode

TAF

TAF MMPR 170522Z 1706/1812 00000KT P6SM BKN070 TX24/1721Z TN18/1712Z FM171800 23010KT P6SM SCT020 BKN070 TEMPO 1718/1722 5SM RA BKN010 FM180400 23050KT 6SM HZ SCT020 BKN070

Decode

Departure Runways

ID Width Length Bearing (true) Bearing (mag) Surface Threshold Offset Overrun Length
04 148 ft / 45 m 10,221 ft / 3,116 m 47.05° 40.16° Asphalt 0 ft / 0 m 185 ft / 56 m
22 148 ft / 45 m 10,221 ft / 3,116 m 227.06° 220.17° Asphalt 0 ft / 0 m 185 ft / 56 m

MMCL

Details ICAO MMCL (CUL)
Name CULIACAN INTL
Region Mexico
Timezone America/Mazatlan (UTC-7.0)
Stats Elevation 108 ft / 33 m (AMSL)
Location 24.765658° -107.476106°
Runways 1
Magnetic Variation 7.841° E

METAR

Not found

TAF

TAF MMCL 170530Z 1706/1806 00000KT P6SM BKN200 FM171800 23010KT P6SM SCT030 BKN100 BKN200 FM180400 23005KT 6SM HZ SCT020 BKN200

Decode

Destination Runways

ID Width Length Bearing (true) Bearing (mag) Surface Threshold Offset Overrun Length
02 148 ft / 45 m 7,568 ft / 2,307 m 32.85° 25.01° Asphalt 0 ft / 0 m 0 ft / 0 m
20 148 ft / 45 m 7,568 ft / 2,307 m 212.86° 205.02° Asphalt 886 ft / 270 m 0 ft / 0 m

Popular Alternatives